Time;durP1;ratioP1;P1;durP2;ratioP2;P2;SDS_P1;SDS_P2;PMS_P1;PMS_P2;Temp;Humidity;BMP_temperature;BMP_pressure;BME280_temperature;BME280_humidity;BME280_pressure;Samples;Min_cycle;Max_cycle;Signal;HPM_P1;HPM_P2
2022/09/27 00:00:05;;;;;;;54.28;32.10;;;9.10;99.90;;;;;;5089461;28;20016;-58
2022/09/27 00:02:30;;;;;;;51.15;30.15;;;9.00;99.90;;;;;;5089383;28;20039;-57
2022/09/27 00:04:57;;;;;;;50.95;32.05;;;9.00;99.90;;;;;;5089462;28;20032;-59
2022/09/27 00:07:23;;;;;;;58.08;31.65;;;9.00;99.90;;;;;;5088578;28;20433;-57
2022/09/27 00:09:48;;;;;;;51.22;30.45;;;9.00;99.90;;;;;;5089515;28;20148;-57
2022/09/27 00:12:14;;;;;;;48.97;29.75;;;9.00;99.90;;;;;;5089536;28;20055;-57
2022/09/27 00:14:40;;;;;;;48.55;27.95;;;9.10;99.90;;;;;;5089684;28;21153;-57
2022/09/27 00:17:06;;;;;;;50.92;26.98;;;9.00;99.90;;;;;;5089306;28;20476;-57
2022/09/27 00:19:31;;;;;;;50.63;28.77;;;9.10;99.90;;;;;;5089347;28;20056;-57
2022/09/27 00:21:57;;;;;;;49.67;26.67;;;9.00;99.90;;;;;;5089357;28;20032;-57
2022/09/27 00:24:23;;;;;;;44.83;26.48;;;9.00;99.90;;;;;;5089527;28;20028;-57
2022/09/27 00:26:49;;;;;;;42.70;29.00;;;9.10;99.90;;;;;;5089515;28;20483;-58
2022/09/27 00:29:17;;;;;;;38.42;26.95;;;9.10;99.90;;;;;;5089190;28;20036;-57
2022/09/27 00:31:43;;;;;;;42.55;28.02;;;9.00;99.90;;;;;;5089245;28;20033;-57
2022/09/27 00:34:20;;;;;;;47.17;27.33;;;9.10;99.90;;;;;;5089324;28;20123;-57
2022/09/27 00:36:46;;;;;;;41.72;25.45;;;9.00;99.90;;;;;;5089376;28;20035;-57
2022/09/27 00:39:13;;;;;;;48.50;25.63;;;9.00;99.90;;;;;;5089369;28;20020;-57
2022/09/27 00:41:39;;;;;;;41.55;25.27;;;8.90;99.90;;;;;;5089373;28;20024;-57
2022/09/27 00:44:25;;;;;;;38.33;25.33;;;8.90;99.90;;;;;;5088977;28;20485;-57
2022/09/27 00:46:58;;;;;;;42.70;26.73;;;8.90;99.90;;;;;;5089267;28;20028;-57
2022/09/27 00:49:30;;;;;;;44.40;26.23;;;8.80;99.90;;;;;;5087827;28;20060;-56
2022/09/27 00:52:12;;;;;;;42.08;25.17;;;8.80;99.90;;;;;;5089585;28;20016;-56
2022/09/27 00:54:41;;;;;;;41.83;25.05;;;8.80;99.90;;;;;;5089735;28;20028;-57
2022/09/27 00:57:07;;;;;;;43.03;25.88;;;8.80;99.90;;;;;;5088023;28;20422;-56
2022/09/27 00:59:38;;;;;;;41.78;23.80;;;8.80;99.90;;;;;;5089369;28;20078;-57
2022/09/27 01:02:06;;;;;;;47.92;26.10;;;8.80;99.90;;;;;;5089590;28;20050;-57
2022/09/27 01:04:33;;;;;;;47.63;25.38;;;8.50;99.90;;;;;;5090404;28;20051;-56
2022/09/27 01:06:59;;;;;;;53.05;29.48;;;8.40;99.90;;;;;;5092944;28;20044;-56
2022/09/27 01:09:26;;;;;;;43.45;25.88;;;8.30;99.90;;;;;;5092854;28;20574;-56
2022/09/27 01:12:27;;;;;;;46.13;28.17;;;8.30;99.90;;;;;;5092995;28;20028;-57
2022/09/27 01:15:17;;;;;;;50.70;29.58;;;8.20;99.90;;;;;;5029918;28;20120;-56
2022/09/27 01:17:51;;;;;;;44.22;29.33;;;8.20;99.90;;;;;;5089890;28;20082;-56
2022/09/27 01:20:20;;;;;;;51.72;31.05;;;8.20;99.90;;;;;;5092607;28;20091;-57
2022/09/27 01:22:57;;;;;;;49.55;31.05;;;8.30;99.90;;;;;;5092607;28;20111;-56
2022/09/27 01:25:44;;;;;;;55.15;30.70;;;8.20;99.90;;;;;;5092501;28;20510;-56
2022/09/27 01:28:48;;;;;;;63.22;33.28;;;8.10;99.90;;;;;;5092504;28;20099;-55
2022/09/27 01:31:29;;;;;;;54.83;32.70;;;8.00;99.90;;;;;;5092333;28;20030;-57
2022/09/27 01:34:04;;;;;;;52.83;32.88;;;8.00;99.90;;;;;;5092240;28;20039;-56
2022/09/27 01:36:38;;;;;;;50.45;32.80;;;8.00;99.90;;;;;;5091912;28;20131;-56
2022/09/27 01:39:21;;;;;;;55.80;33.30;;;8.00;99.90;;;;;;5092342;28;20121;-57
2022/09/27 01:42:13;;;;;;;52.92;33.30;;;8.00;99.90;;;;;;5092349;28;20514;-58
2022/09/27 01:45:13;;;;;;;47.78;30.90;;;8.00;99.90;;;;;;5092282;28;20043;-59
2022/09/27 01:48:01;;;;;;;52.13;32.50;;;7.90;99.90;;;;;;5060068;28;20040;-58
2022/09/27 01:50:43;;;;;;;59.72;33.75;;;7.80;99.90;;;;;;5092026;28;20143;-57
2022/09/27 01:53:15;;;;;;;49.85;33.47;;;7.80;99.90;;;;;;5092129;28;20256;-58
2022/09/27 01:55:41;;;;;;;53.33;32.90;;;7.80;99.90;;;;;;5091974;28;20032;-58
2022/09/27 01:58:40;;;;;;;54.03;33.83;;;7.80;99.90;;;;;;5091909;28;20032;-58
2022/09/27 02:01:08;;;;;;;51.75;32.58;;;7.90;99.90;;;;;;5092015;28;20077;-57
2022/09/27 02:03:41;;;;;;;50.22;31.30;;;7.90;99.90;;;;;;5091743;28;20028;-57
2022/09/27 02:06:12;;;;;;;47.05;31.73;;;7.90;99.90;;;;;;5091784;28;20028;-57
2022/09/27 02:09:08;;;;;;;48.78;30.75;;;8.00;99.90;;;;;;5091648;28;20054;-58
2022/09/27 02:11:40;;;;;;;49.35;32.95;;;7.90;99.90;;;;;;5085201;28;20414;-57
2022/09/27 02:14:21;;;;;;;54.22;32.17;;;7.90;99.90;;;;;;5091506;28;20024;-57
2022/09/27 02:17:06;;;;;;;52.53;32.53;;;7.80;99.90;;;;;;5091525;28;20100;-56
2022/09/27 02:19:52;;;;;;;49.85;32.33;;;7.70;99.90;;;;;;5091597;28;20031;-57
2022/09/27 02:22:55;;;;;;;54.08;34.40;;;7.70;99.90;;;;;;5091685;28;20341;-56
2022/09/27 02:25:40;;;;;;;56.25;33.97;;;7.70;99.90;;;;;;5091514;28;20088;-57
2022/09/27 02:28:18;;;;;;;51.38;33.13;;;7.60;99.90;;;;;;5091318;28;20085;-57
2022/09/27 02:30:44;;;;;;;53.22;34.40;;;7.50;99.90;;;;;;5091137;28;20024;-57
2022/09/27 02:33:10;;;;;;;55.13;35.13;;;7.50;99.90;;;;;;5091232;28;20100;-58
2022/09/27 02:35:35;;;;;;;57.38;35.47;;;7.50;99.90;;;;;;5091275;28;20031;-58
2022/09/27 02:38:05;;;;;;;56.50;37.03;;;7.50;99.90;;;;;;5090951;28;20036;-57
2022/09/27 02:40:33;;;;;;;63.95;39.47;;;7.50;99.90;;;;;;5091095;28;20053;-57
2022/09/27 02:43:00;;;;;;;66.43;39.58;;;7.50;99.90;;;;;;5090996;28;20467;-58
2022/09/27 02:45:32;;;;;;;63.38;37.83;;;7.50;99.90;;;;;;5091224;28;20028;-58
2022/09/27 02:48:16;;;;;;;51.97;33.80;;;7.50;99.90;;;;;;5090879;28;20032;-57
2022/09/27 02:51:07;;;;;;;54.72;33.00;;;7.50;99.90;;;;;;5089430;28;20062;-57
2022/09/27 02:53:46;;;;;;;51.42;33.65;;;7.50;99.90;;;;;;5090685;28;20035;-57
2022/09/27 02:56:36;;;;;;;59.35;35.92;;;7.50;99.90;;;;;;5090934;28;20024;-57
2022/09/27 02:59:08;;;;;;;53.90;34.08;;;7.50;99.90;;;;;;5090639;28;20040;-57
2022/09/27 03:02:13;;;;;;;54.92;33.00;;;7.40;99.90;;;;;;5090864;28;20024;-56
2022/09/27 03:04:52;;;;;;;54.90;31.67;;;7.50;99.90;;;;;;5090840;28;20107;-56
2022/09/27 03:07:19;;;;;;;50.55;31.55;;;7.40;99.90;;;;;;5090639;28;20667;-56
2022/09/27 03:09:50;;;;;;;57.60;35.03;;;7.40;99.90;;;;;;5090751;28;20052;-57
2022/09/27 03:12:27;;;;;;;51.65;33.92;;;7.50;99.90;;;;;;5090398;28;20051;-57
2022/09/27 03:14:58;;;;;;;53.72;32.50;;;7.60;99.90;;;;;;5090399;28;20545;-58
2022/09/27 03:17:24;;;;;;;50.03;31.92;;;7.60;99.90;;;;;;5090390;28;20039;-57
2022/09/27 03:19:49;;;;;;;49.13;31.13;;;7.60;99.90;;;;;;5090268;28;20429;-57
2022/09/27 03:22:16;;;;;;;49.17;32.20;;;7.50;99.90;;;;;;5090312;28;20028;-57
2022/09/27 03:24:41;;;;;;;54.40;32.40;;;7.60;99.90;;;;;;5090447;28;20035;-57
2022/09/27 03:27:07;;;;;;;53.53;32.17;;;7.60;99.90;;;;;;5089643;28;20020;-56
2022/09/27 03:29:33;;;;;;;52.33;30.63;;;7.50;99.90;;;;;;5090418;28;20031;-58
2022/09/27 03:31:59;;;;;;;50.13;30.52;;;7.50;99.90;;;;;;5090299;28;20491;-57
2022/09/27 03:34:24;;;;;;;46.42;28.60;;;7.50;99.90;;;;;;5090157;28;20101;-57
2022/09/27 03:36:50;;;;;;;46.03;28.77;;;7.30;99.90;;;;;;5089975;28;20589;-57
2022/09/27 03:39:16;;;;;;;50.72;29.73;;;7.40;99.90;;;;;;5090013;28;20032;-58
2022/09/27 03:41:42;;;;;;;51.30;30.63;;;7.30;99.90;;;;;;5090058;28;20043;-57
2022/09/27 03:44:08;;;;;;;49.17;29.65;;;7.30;99.90;;;;;;5088706;28;20032;-57
2022/09/27 03:46:33;;;;;;;48.45;29.73;;;7.30;99.90;;;;;;5089960;28;20031;-57
2022/09/27 03:48:59;;;;;;;47.17;29.17;;;7.20;99.90;;;;;;5089951;28;20127;-57
2022/09/27 03:51:26;;;;;;;47.08;27.50;;;7.30;99.90;;;;;;5090163;28;20463;-58
2022/09/27 03:53:52;;;;;;;42.75;27.10;;;7.40;99.90;;;;;;5089258;28;20081;-58
2022/09/27 03:56:17;;;;;;;41.80;26.85;;;7.30;99.90;;;;;;5089996;28;20024;-58
2022/09/27 03:58:43;;;;;;;43.60;28.52;;;7.30;99.90;;;;;;5089988;28;20412;-57
2022/09/27 04:01:09;;;;;;;44.55;27.85;;;7.30;99.90;;;;;;5089962;28;20085;-57
2022/09/27 04:03:35;;;;;;;50.45;30.55;;;7.30;99.90;;;;;;5089977;28;20590;-57
2022/09/27 04:06:02;;;;;;;43.80;27.70;;;7.30;99.90;;;;;;5089743;28;20020;-58
2022/09/27 04:08:29;;;;;;;46.63;28.05;;;7.30;99.90;;;;;;5088182;28;20185;-57
2022/09/27 04:10:55;;;;;;;45.15;30.05;;;7.30;99.90;;;;;;5089654;28;20325;-57
2022/09/27 04:13:21;;;;;;;48.63;31.15;;;7.30;99.90;;;;;;5089994;28;20060;-57
2022/09/27 04:15:47;;;;;;;42.78;29.30;;;7.30;99.90;;;;;;5090018;28;20024;-57
2022/09/27 04:18:13;;;;;;;44.28;28.20;;;7.40;99.90;;;;;;5089517;28;20040;-58
2022/09/27 04:20:39;;;;;;;45.65;29.92;;;7.40;99.90;;;;;;5089656;28;20028;-57
2022/09/27 04:23:05;;;;;;;49.28;31.58;;;7.40;99.90;;;;;;5089516;28;20028;-56
2022/09/27 04:25:31;;;;;;;47.40;28.02;;;7.40;99.90;;;;;;5089785;28;20024;-57
2022/09/27 04:27:58;;;;;;;47.33;32.08;;;7.40;99.90;;;;;;5089611;28;20078;-58
2022/09/27 04:30:25;;;;;;;55.22;35.03;;;7.40;99.90;;;;;;5089599;28;20035;-57
2022/09/27 04:32:51;;;;;;;52.47;33.65;;;7.40;99.90;;;;;;5089590;28;20048;-58
2022/09/27 04:38:01;;;;;;;50.85;30.92;;;7.40;99.90;;;;;;5089441;28;20522;-56
2022/09/27 04:40:28;;;;;;;52.55;32.83;;;7.50;99.90;;;;;;5092347;28;20032;-56
2022/09/27 04:42:54;;;;;;;46.30;31.23;;;7.50;99.90;;;;;;5093398;28;20119;-56
2022/09/27 04:45:20;;;;;;;51.33;30.20;;;7.50;99.90;;;;;;5093397;28;20059;-56
2022/09/27 04:47:47;;;;;;;44.03;31.23;;;7.60;99.90;;;;;;5093254;28;20024;-56
2022/09/27 04:50:14;;;;;;;46.30;30.33;;;7.60;99.90;;;;;;5093186;28;20024;-56
2022/09/27 04:52:40;;;;;;;50.00;32.23;;;7.50;99.90;;;;;;5093062;28;20471;-56
2022/09/27 04:55:07;;;;;;;47.42;31.60;;;7.60;99.90;;;;;;5093156;28;20458;-59
2022/09/27 04:57:33;;;;;;;49.65;32.17;;;7.60;99.90;;;;;;5093054;28;20044;-56
2022/09/27 04:59:59;;;;;;;54.67;32.47;;;7.50;99.90;;;;;;5093095;28;20620;-58
2022/09/27 05:02:28;;;;;;;49.95;32.63;;;7.60;99.90;;;;;;5093013;28;20516;-58
2022/09/27 05:04:58;;;;;;;50.65;32.08;;;7.50;99.90;;;;;;5093183;28;20386;-58
2022/09/27 05:07:28;;;;;;;53.95;32.58;;;7.60;99.90;;;;;;5092608;28;20055;-57
2022/09/27 05:09:54;;;;;;;59.47;34.90;;;7.60;99.90;;;;;;5093086;28;20069;-57
2022/09/27 05:12:20;;;;;;;50.33;33.30;;;7.70;99.90;;;;;;5092844;28;20031;-57
2022/09/27 05:14:46;;;;;;;54.15;33.05;;;7.70;99.90;;;;;;5092784;28;20024;-57
2022/09/27 05:17:12;;;;;;;52.58;34.65;;;7.80;99.90;;;;;;5092548;28;20077;-58
2022/09/27 05:19:38;;;;;;;53.00;35.20;;;7.80;99.90;;;;;;5092749;28;20028;-58
2022/09/27 05:22:05;;;;;;;51.47;34.72;;;7.90;99.90;;;;;;5092505;28;20609;-58
2022/09/27 05:24:32;;;;;;;57.95;36.78;;;8.00;99.90;;;;;;5092536;28;20051;-57
2022/09/27 05:27:01;;;;;;;63.57;38.57;;;8.00;99.90;;;;;;5092565;28;20056;-58
2022/09/27 05:29:27;;;;;;;56.38;37.38;;;8.10;99.90;;;;;;5091093;28;20032;-58
2022/09/27 05:31:53;;;;;;;49.67;34.53;;;8.10;99.90;;;;;;5092483;28;20438;-58
2022/09/27 05:34:19;;;;;;;59.13;36.25;;;8.20;99.90;;;;;;5092386;28;20086;-59
2022/09/27 05:36:48;;;;;;;55.53;35.72;;;8.30;99.90;;;;;;5090712;28;20119;-58
2022/09/27 05:39:17;;;;;;;48.42;33.58;;;8.30;99.90;;;;;;5090709;28;20433;-59
2022/09/27 05:41:44;;;;;;;50.95;34.45;;;8.40;99.90;;;;;;5092242;28;20422;-57
2022/09/27 05:44:12;;;;;;;49.10;34.50;;;8.50;99.90;;;;;;5092175;28;20035;-57
2022/09/27 05:46:38;;;;;;;55.85;37.13;;;8.50;99.90;;;;;;5092020;28;20536;-57
2022/09/27 05:49:04;;;;;;;48.47;34.58;;;8.60;99.90;;;;;;5091870;28;20479;-57
2022/09/27 05:51:30;;;;;;;54.65;35.40;;;8.60;99.90;;;;;;5091559;28;20032;-57
2022/09/27 05:53:55;;;;;;;52.30;36.60;;;8.70;99.90;;;;;;5090483;28;20027;-58
2022/09/27 05:56:21;;;;;;;54.28;37.20;;;8.80;99.90;;;;;;5092213;28;20020;-56
2022/09/27 05:58:47;;;;;;;53.40;37.30;;;8.80;99.90;;;;;;5091787;28;20036;-57
2022/09/27 06:01:12;;;;;;;52.55;35.40;;;8.90;99.90;;;;;;5091574;28;20028;-56
2022/09/27 06:03:39;;;;;;;49.47;34.22;;;8.90;99.90;;;;;;5091727;28;20028;-56
2022/09/27 06:06:06;;;;;;;52.53;34.92;;;8.90;99.90;;;;;;5091735;28;20036;-57
2022/09/27 06:08:33;;;;;;;55.63;38.10;;;9.00;99.90;;;;;;5091349;28;20052;-57
2022/09/27 06:11:05;;;;;;;57.65;38.20;;;9.10;99.90;;;;;;5091609;28;20025;-57
2022/09/27 06:13:35;;;;;;;50.67;37.97;;;9.20;99.90;;;;;;5091580;28;20399;-57
2022/09/27 06:16:02;;;;;;;55.00;37.40;;;9.20;99.90;;;;;;5091587;28;20031;-57
2022/09/27 06:18:28;;;;;;;56.60;38.50;;;9.20;99.90;;;;;;5091305;28;20571;-57
2022/09/27 06:20:54;;;;;;;60.17;39.83;;;9.30;99.90;;;;;;5091399;28;20028;-57
2022/09/27 06:23:22;;;;;;;55.65;38.72;;;9.40;99.90;;;;;;5091358;28;20031;-56
2022/09/27 06:25:49;;;;;;;57.45;40.05;;;9.50;99.90;;;;;;5091427;28;20593;-57
2022/09/27 06:28:16;;;;;;;59.45;41.15;;;9.60;99.90;;;;;;5091417;28;20031;-59
2022/09/27 06:30:46;;;;;;;56.10;41.30;;;9.70;99.90;;;;;;5091528;28;20036;-57
2022/09/27 06:33:14;;;;;;;54.13;41.25;;;9.80;99.90;;;;;;5091371;28;20108;-58
2022/09/27 06:35:44;;;;;;;56.08;40.15;;;9.80;99.90;;;;;;5091108;28;20020;-57
2022/09/27 06:38:14;;;;;;;55.80;38.85;;;9.90;99.90;;;;;;5090983;28;20036;-57
2022/09/27 06:40:44;;;;;;;51.17;35.90;;;10.00;99.90;;;;;;5091134;28;20016;-58
2022/09/27 06:43:12;;;;;;;51.58;34.90;;;10.10;99.90;;;;;;5091198;28;20108;-57
2022/09/27 06:45:38;;;;;;;46.75;33.75;;;10.10;99.90;;;;;;5091205;28;20047;-57
2022/09/27 06:48:05;;;;;;;47.33;33.55;;;10.20;99.90;;;;;;5089450;28;20047;-56
2022/09/27 06:50:35;;;;;;;;;;;10.30;99.90;;;;;;5091353;28;20027;-57
2022/09/27 06:53:02;;;;;;;45.35;33.63;;;10.30;99.90;;;;;;5090511;28;19943;-57
2022/09/27 06:55:28;;;;;;;50.05;33.67;;;10.40;99.90;;;;;;5089712;28;20035;-57
2022/09/27 07:00:46;;;;;;;44.15;32.80;;;10.60;99.90;;;;;;5090927;28;20070;-59
2022/09/27 07:03:13;;;;;;;45.35;30.98;;;10.70;99.90;;;;;;5088274;28;20403;-55
2022/09/27 07:05:41;;;;;;;38.22;27.35;;;10.80;99.90;;;;;;5090181;28;20027;-56
2022/09/27 07:08:10;;;;;;;37.35;27.25;;;10.90;99.90;;;;;;5088340;28;20040;-58
2022/09/27 07:10:38;;;;;;;41.25;26.95;;;11.00;99.90;;;;;;5082284;28;20051;-56
2022/09/27 07:13:07;;;;;;;;;;;11.10;99.90;;;;;;5090987;28;20165;-57
2022/09/27 07:15:36;;;;;;;35.13;25.33;;;11.20;99.90;;;;;;5089786;28;19912;-57
2022/09/27 07:18:03;;;;;;;37.78;26.40;;;11.30;99.90;;;;;;5088502;28;20031;-57
2022/09/27 07:20:29;;;;;;;37.58;25.65;;;11.40;99.90;;;;;;5087393;28;20035;-57
2022/09/27 07:22:55;;;;;;;36.53;26.33;;;11.50;99.90;;;;;;5089698;28;20036;-57
2022/09/27 07:25:21;;;;;;;35.20;25.80;;;11.70;99.90;;;;;;5090053;28;20028;-56
2022/09/27 07:27:47;;;;;;;36.13;25.40;;;11.70;99.90;;;;;;5087601;28;20387;-55
2022/09/27 07:30:14;;;;;;;36.38;25.23;;;11.90;99.90;;;;;;5089806;28;20024;-55
2022/09/27 07:32:41;;;;;;;36.55;26.50;;;12.00;99.90;;;;;;5089687;28;20032;-55
2022/09/27 07:35:08;;;;;;;34.50;24.75;;;12.00;99.90;;;;;;5089635;28;20024;-55
2022/09/27 07:37:36;;;;;;;42.53;23.80;;;12.10;99.90;;;;;;5089629;28;20032;-56
2022/09/27 07:40:05;;;;;;;35.40;24.60;;;12.20;99.90;;;;;;5088632;28;20552;-56
2022/09/27 07:42:31;;;;;;;32.00;23.38;;;12.30;99.90;;;;;;5090307;28;20039;-55
2022/09/27 07:44:57;;;;;;;33.00;23.75;;;12.50;99.90;;;;;;5076667;28;20033;-56
2022/09/27 07:47:24;;;;;;;32.35;23.40;;;12.60;99.90;;;;;;5067487;28;20064;-57
2022/09/27 07:49:51;;;;;;;36.70;21.35;;;12.70;99.90;;;;;;5068818;28;20054;-56
2022/09/27 07:52:18;;;;;;;30.40;20.88;;;12.90;99.90;;;;;;5068821;28;20540;-55
2022/09/27 07:54:44;;;;;;;32.50;22.38;;;13.00;99.90;;;;;;5068927;28;20032;-58
2022/09/27 07:57:10;;;;;;;33.70;21.88;;;13.10;99.90;;;;;;5067677;28;20815;-58
2022/09/27 07:59:36;;;;;;;31.23;20.70;;;13.10;99.90;;;;;;5067225;28;20120;-58
2022/09/27 08:02:01;;;;;;;33.70;21.77;;;13.10;99.90;;;;;;5080367;28;20019;-55
2022/09/27 08:04:27;;;;;;;30.13;20.83;;;13.10;99.90;;;;;;5087167;28;20047;-57
2022/09/27 08:06:54;;;;;;;30.08;20.20;;;13.10;99.90;;;;;;5087108;28;20076;-58
2022/09/27 08:09:19;;;;;;;28.77;19.63;;;13.20;99.90;;;;;;5087480;28;20032;-57
2022/09/27 08:11:45;;;;;;;23.67;18.02;;;13.20;99.90;;;;;;5074550;28;20029;-57
2022/09/27 08:14:11;;;;;;;29.50;17.50;;;13.30;99.90;;;;;;5084778;28;20034;-56
2022/09/27 08:16:37;;;;;;;26.60;17.23;;;13.40;99.90;;;;;;5090665;28;20032;-56
2022/09/27 08:19:03;;;;;;;22.98;16.15;;;13.40;99.90;;;;;;5092458;28;20495;-56
2022/09/27 08:21:29;;;;;;;23.13;16.10;;;13.50;99.90;;;;;;5090742;28;20028;-57
2022/09/27 08:23:55;;;;;;;27.27;16.27;;;13.60;99.90;;;;;;5092686;28;20028;-57
2022/09/27 08:26:21;;;;;;;22.23;16.10;;;13.70;99.90;;;;;;5092686;28;20031;-57
2022/09/27 08:28:48;;;;;;;22.70;15.63;;;13.90;99.90;;;;;;5092878;28;20025;-57
2022/09/27 08:31:13;;;;;;;26.75;15.35;;;14.00;99.90;;;;;;5092248;28;20093;-56
2022/09/27 08:33:39;;;;;;;23.55;16.90;;;14.10;99.90;;;;;;5092324;28;20028;-56
2022/09/27 08:36:11;;;;;;;23.75;15.80;;;14.10;99.90;;;;;;5092560;28;20028;-56
2022/09/27 08:38:37;;;;;;;133.82;84.97;;;14.20;99.90;;;;;;5091766;28;20032;-56
2022/09/27 08:41:32;;;;;;;42.92;25.77;;;14.50;99.90;;;;;;5091944;28;20027;-56
2022/09/27 08:44:33;;;;;;;21.42;14.63;;;14.80;99.90;;;;;;5090084;28;20049;-56
2022/09/27 08:47:11;;;;;;;20.73;13.75;;;15.00;99.90;;;;;;5062618;28;20067;-57
2022/09/27 08:49:42;;;;;;;18.70;12.80;;;15.30;99.90;;;;;;5090237;28;20032;-59
2022/09/27 08:52:22;;;;;;;19.05;13.45;;;15.40;99.90;;;;;;5092327;28;20024;-55
2022/09/27 08:54:49;;;;;;;22.27;12.40;;;15.80;99.90;;;;;;5090974;28;20031;-55
2022/09/27 08:57:16;;;;;;;17.83;11.95;;;15.80;99.90;;;;;;5091498;28;20028;-55
2022/09/27 09:00:10;;;;;;;16.90;12.18;;;15.70;99.90;;;;;;5091530;28;20503;-55
2022/09/27 09:02:37;;;;;;;22.42;13.02;;;15.70;99.90;;;;;;5088723;28;20031;-55
2022/09/27 09:05:28;;;;;;;20.45;12.73;;;15.70;99.90;;;;;;5091052;28;20748;-55
2022/09/27 09:08:11;;;;;;;21.75;12.45;;;15.50;99.90;;;;;;5090333;28;20157;-55
2022/09/27 09:14:03;;;;;;;19.85;11.52;;;15.40;99.90;;;;;;5091139;28;20074;-57
2022/09/27 09:16:44;;;;;;;18.35;9.77;;;15.40;99.90;;;;;;5091389;28;20024;-56
2022/09/27 09:19:22;;;;;;;15.93;9.40;;;15.50;99.90;;;;;;5089196;28;20044;-56
2022/09/27 09:22:15;;;;;;;16.83;10.07;;;15.50;99.90;;;;;;5086879;28;20500;-56
2022/09/27 09:25:03;;;;;;;16.30;9.65;;;15.50;99.90;;;;;;5089585;28;20028;-55
2022/09/27 09:28:01;;;;;;;11.37;7.43;;;15.50;99.90;;;;;;5090167;28;20037;-56
2022/09/27 09:31:02;;;;;;;15.32;7.15;;;15.50;99.90;;;;;;5047738;28;20044;-55
2022/09/27 09:33:43;;;;;;;11.68;6.47;;;15.50;99.90;;;;;;5071219;28;20167;-56
2022/09/27 09:36:33;;;;;;;11.32;7.03;;;15.50;99.90;;;;;;5071923;28;20093;-56
2022/09/27 09:39:07;;;;;;;10.50;6.40;;;15.50;99.90;;;;;;5069285;28;20039;-58
2022/09/27 09:42:07;;;;;;;11.48;6.60;;;15.60;99.90;;;;;;5102498;28;20514;-57
2022/09/27 09:44:48;;;;;;;10.50;5.97;;;15.60;99.90;;;;;;5061910;28;20051;-57
2022/09/27 09:47:39;;;;;;;10.63;6.32;;;15.70;99.90;;;;;;5071949;28;20028;-55
2022/09/27 09:50:18;;;;;;;12.27;6.38;;;15.60;99.90;;;;;;5071836;28;20066;-56
2022/09/27 09:52:53;;;;;;;11.35;5.70;;;15.70;99.90;;;;;;5071622;28;20532;-55
2022/09/27 09:55:22;;;;;;;9.60;5.07;;;15.80;99.90;;;;;;5071581;28;20075;-56
2022/09/27 09:58:20;;;;;;;12.02;6.03;;;16.00;99.90;;;;;;5070062;28;20063;-56
2022/09/27 10:00:49;;;;;;;8.60;5.35;;;16.20;99.90;;;;;;5069978;28;20025;-55
2022/09/27 10:03:15;;;;;;;10.50;5.50;;;16.30;99.90;;;;;;5070052;28;20107;-56
2022/09/27 10:05:43;;;;;;;9.10;5.55;;;16.40;99.90;;;;;;5070176;28;20189;-57
2022/09/27 10:08:17;;;;;;;10.07;5.28;;;16.50;99.90;;;;;;5069857;28;20041;-56
2022/09/27 10:10:42;;;;;;;9.63;5.55;;;16.60;99.90;;;;;;5070891;28;20807;-56
2022/09/27 10:13:17;;;;;;;12.00;5.60;;;16.60;99.90;;;;;;5071331;28;20041;-56
2022/09/27 10:15:53;;;;;;;10.77;6.18;;;16.60;99.90;;;;;;5071365;28;20033;-55
2022/09/27 10:18:20;;;;;;;10.50;6.25;;;16.70;99.90;;;;;;5071354;28;20032;-56
2022/09/27 10:20:54;;;;;;;12.15;6.75;;;16.70;99.90;;;;;;5071235;28;20020;-55
2022/09/27 10:23:23;;;;;;;11.18;6.50;;;16.80;99.90;;;;;;5071347;28;20047;-55
2022/09/27 10:25:59;;;;;;;10.63;7.78;;;16.80;99.90;;;;;;5071381;28;20438;-56
2022/09/27 10:28:31;;;;;;;16.60;9.73;;;16.80;99.90;;;;;;5070979;28;20037;-57
2022/09/27 10:31:00;;;;;;;23.23;9.63;;;16.90;99.90;;;;;;5071215;28;20031;-57
2022/09/27 10:33:28;;;;;;;14.32;9.25;;;16.90;99.90;;;;;;5071153;28;20479;-56
2022/09/27 10:35:55;;;;;;;19.70;9.38;;;17.00;99.90;;;;;;5103523;28;20229;-55
2022/09/27 10:38:22;;;;;;;17.13;9.13;;;17.00;99.90;;;;;;5069802;28;20040;-55
2022/09/27 10:40:54;;;;;;;10.35;8.00;;;17.10;99.90;;;;;;5070885;28;20472;-56
2022/09/27 10:43:29;;;;;;;11.93;7.20;;;17.10;99.90;;;;;;5070954;28;20630;-56
2022/09/27 10:46:03;;;;;;;10.45;6.90;;;17.00;99.90;;;;;;5070980;28;20020;-56
2022/09/27 10:48:29;;;;;;;12.70;7.68;;;17.10;99.90;;;;;;5070767;28;20025;-56
2022/09/27 10:51:06;;;;;;;9.07;6.45;;;17.30;99.90;;;;;;5070674;28;20057;-56
2022/09/27 10:53:35;;;;;;;8.48;5.97;;;17.30;99.90;;;;;;5070902;28;20020;-56
2022/09/27 10:56:01;;;;;;;8.02;5.20;;;17.50;99.90;;;;;;5070524;28;20029;-56
2022/09/27 10:58:30;;;;;;;7.55;5.22;;;17.40;99.90;;;;;;5070498;28;20488;-56
2022/09/27 11:01:01;;;;;;;9.57;5.20;;;17.30;99.90;;;;;;5069099;28;20028;-56
2022/09/27 11:03:29;;;;;;;7.47;4.70;;;17.30;99.90;;;;;;5070456;28;20621;-56
2022/09/27 11:05:55;;;;;;;8.05;5.22;;;17.30;99.90;;;;;;5070591;28;20074;-57
2022/09/27 11:08:41;;;;;;;11.25;6.22;;;17.00;99.90;;;;;;5070429;28;20052;-56
2022/09/27 11:11:07;;;;;;;9.63;6.43;;;17.10;99.90;;;;;;5070266;28;20399;-56
2022/09/27 11:13:34;;;;;;;8.25;5.40;;;17.00;99.90;;;;;;5070413;28;20471;-56
2022/09/27 11:16:06;;;;;;;;;;;17.00;99.90;;;;;;5070979;28;20029;-56
2022/09/27 11:19:00;;;;;;;11.90;5.85;;;17.00;99.90;;;;;;5070233;28;20367;-56
2022/09/27 11:21:52;;;;;;;10.15;6.75;;;16.90;99.90;;;;;;5070176;28;20037;-58
2022/09/27 11:24:39;;;;;;;8.55;5.70;;;16.70;99.90;;;;;;5070169;28;20029;-58
2022/09/27 11:27:04;;;;;;;12.05;5.80;;;16.70;99.90;;;;;;5070005;28;20384;-58
2022/09/27 11:29:49;;;;;;;9.55;6.35;;;16.60;99.90;;;;;;5070140;28;20094;-58
2022/09/27 11:32:33;;;;;;;11.35;6.90;;;16.50;99.90;;;;;;5069948;28;20039;-55
2022/09/27 11:35:07;;;;;;;9.10;6.88;;;16.50;99.90;;;;;;5070054;28;20039;-55
2022/09/27 11:37:59;;;;;;;10.90;6.38;;;16.50;99.90;;;;;;5069923;28;20139;-56
2022/09/27 11:40:46;;;;;;;9.10;5.88;;;16.40;99.90;;;;;;5053443;28;20032;-56
2022/09/27 11:43:32;;;;;;;8.32;5.18;;;16.40;99.90;;;;;;5069971;28;20036;-56
2022/09/27 11:45:58;;;;;;;11.98;5.60;;;16.30;99.90;;;;;;5069985;28;20197;-57
2022/09/27 11:48:33;;;;;;;7.32;5.13;;;16.30;99.90;;;;;;5069455;28;20500;-57
2022/09/27 11:51:28;;;;;;;8.20;5.72;;;16.20;99.90;;;;;;5069719;28;20043;-56
2022/09/27 11:54:18;;;;;;;8.98;5.75;;;16.20;99.90;;;;;;5070024;28;20038;-57
2022/09/27 11:59:48;;;;;;;9.57;5.63;;;16.10;99.90;;;;;;5105851;28;20052;-90
2022/09/27 12:02:21;;;;;;;8.45;5.65;;;16.10;99.90;;;;;;5086374;28;20013;-91
2022/09/27 12:04:55;;;;;;;9.52;5.47;;;16.00;99.90;;;;;;5060879;28;20031;-90
2022/09/27 12:07:21;;;;;;;8.60;5.35;;;16.00;99.90;;;;;;5058980;28;20044;-91
2022/09/27 12:09:52;;;;;;;;;;;16.00;99.90;;;;;;5057867;28;20486;-93
2022/09/27 12:12:30;;;;;;;8.40;4.57;;;16.00;99.90;;;;;;5056777;28;19948;-92
2022/09/27 12:14:59;;;;;;;10.65;6.00;;;16.00;99.90;;;;;;5056710;28;20380;-92
2022/09/27 12:17:43;;;;;;;10.77;6.03;;;15.90;99.90;;;;;;5056755;28;20033;-92
2022/09/27 12:20:23;;;;;;;10.88;5.97;;;15.60;99.90;;;;;;5057472;28;20020;-92
2022/09/27 12:22:57;;;;;;;11.55;6.50;;;15.60;99.90;;;;;;5055930;28;20017;-91
2022/09/27 12:25:28;;;;;;;11.60;8.18;;;15.60;99.90;;;;;;5055442;28;20036;-91
2022/09/27 12:28:08;;;;;;;10.43;6.97;;;15.70;99.90;;;;;;5056317;28;20028;-91
2022/09/27 12:30:39;;;;;;;10.73;7.18;;;15.60;99.90;;;;;;5055339;28;20028;-92
2022/09/27 12:33:36;;;;;;;10.65;6.28;;;15.70;99.90;;;;;;5055623;28;20024;-91
2022/09/27 12:36:08;;;;;;;12.88;7.85;;;15.60;99.90;;;;;;5055654;28;20028;-91
2022/09/27 12:39:00;;;;;;;13.43;8.18;;;15.60;99.90;;;;;;5055699;28;20036;-91
2022/09/27 12:41:30;;;;;;;11.20;6.68;;;15.70;99.90;;;;;;5056172;28;20027;-91
2022/09/27 12:43:58;;;;;;;14.20;9.02;;;15.60;99.90;;;;;;5056346;28;20027;-91
2022/09/27 12:46:35;;;;;;;;;;;15.60;99.90;;;;;;5055906;28;20028;-92
2022/09/27 12:49:21;;;;;;;11.95;7.82;;;15.60;99.90;;;;;;5055106;28;19995;-92
2022/09/27 12:51:59;;;;;;;9.38;6.97;;;15.60;99.90;;;;;;5056300;28;20039;-91
2022/09/27 12:54:25;;;;;;;;;;;15.50;99.90;;;;;;5056121;28;20497;-91
2022/09/27 12:56:57;;;;;;;9.77;6.30;;;15.50;99.90;;;;;;5055570;28;19904;-89
2022/09/27 12:59:35;;;;;;;8.23;4.90;;;15.40;99.90;;;;;;5055105;28;20519;-91
2022/09/27 13:02:25;;;;;;;6.55;4.05;;;15.40;99.90;;;;;;5059108;28;20040;-92
2022/09/27 13:05:03;;;;;;;9.00;4.13;;;15.40;99.90;;;;;;5059351;28;20062;-92
2022/09/27 13:08:14;;;;;;;7.15;4.90;;;15.30;99.90;;;;;;5059701;28;20610;-91
2022/09/27 13:11:18;;;;;;;7.70;4.85;;;15.30;99.90;;;;;;5060674;28;20039;-91
2022/09/27 13:13:44;;;;;;;6.47;4.35;;;15.10;99.90;;;;;;5078475;28;20039;-88
2022/09/27 13:16:11;;;;;;;7.32;4.65;;;15.10;99.90;;;;;;5077425;28;20028;-89